• Join FlightAware (Why Join?)
  • Login
  • US Flag 
05:20AM EDT


 

Airport Tracker/Info


-or-


 

Live Flight TrackerFlight Track Log ✈ AAL2179 ✈ 04-Aug-2013 ✈ KMIA - SKMD / EOH

Flight Track Log - Related Links

Times and Time Zones

All times are in EDT time to prevent confusion due to time zone crossing. See the AAL2179 flight status page for this flight to view local times or setup timezone preferences in your user account.

Time Position Orientation Groundspeed Altitude Reporting Facility
EDT Latitude Longitude Course Direction KTS MPH feet Rate Location/Type
10:49AM 25.7870 -80.2840 180° South 105 121  Level FlightAware
10:50AM 25.7870 -80.3000 270° West 175 201 1,140 Level FlightAware
10:50AM 25.7850 -80.3310 266° West 180 207 1,100 1,860 Climbing FlightAware
10:50AM 25.7840 -80.3440 265° West 187 215 1,600 1,740 Climbing FlightAware
10:50AM 25.7800 -80.3530 244° Southwest 197 227 1,800 1,320 Climbing FlightAware
10:51AM 25.7720 -80.3590 214° Southwest 199 229 2,000 1,200 Climbing FlightAware
10:51AM 25.7670 -80.3610 200° South 201 231 2,100 960 Climbing FlightAware
10:51AM 25.7430 -80.3500 158° South 243 280 2,500 1,200 Climbing FlightAware
10:51AM 25.7290 -80.3390 145° Southeast 251 289 2,900 2,100 Climbing FlightAware
10:52AM 25.7090 -80.3220 143° Southeast 268 308 3,700 2,700 Climbing FlightAware
10:52AM 25.6890 -80.3060 144° Southeast 261 300 4,700 2,700 Climbing FlightAware
10:52AM 25.6680 -80.2890 144° Southeast 275 316 5,500 2,220 Climbing FlightAware
10:53AM 25.6480 -80.2730 144° Southeast 283 326 6,200 2,400 Climbing FlightAware
10:53AM 25.6320 -80.2600 144° Southeast 285 328 6,900 2,340 Climbing FlightAware
10:53AM 25.6100 -80.2420 144° Southeast 282 325 7,700 2,280 Climbing FlightAware
10:54AM 25.5990 -80.2330 144° Southeast 284 327 8,100 2,760 Climbing FlightAware
10:54AM 25.5720 -80.2110 144° Southeast 287 330 9,200 2,400 Climbing FlightAware
10:54AM 25.5500 -80.1930 144° Southeast 297 342 9,900 1,440 Climbing FlightAware
10:55AM 25.4970 -80.1500 144° Southeast 337 388 10,800 1,200 Climbing FlightAware
10:55AM 25.4570 -80.1170 143° Southeast 363 418 11,400 1,620 Climbing FlightAware
10:56AM 25.4090 -80.0780 144° Southeast 366 421 12,600 2,700 Climbing FlightAware
10:57AM 25.3540 -80.0330 144° Southeast 364 419 14,800 2,700 Climbing FlightAware
10:57AM 25.3110 -79.9990 144° Southeast 377 434 15,800 900 Climbing FlightAware
10:58AM 25.2620 -79.9620 146° Southeast 366 421 15,800  Level FlightAware
10:58AM 25.2240 -79.9350 147° Southeast 365 420 15,800 720 Level FlightAware
10:59AM 25.1570 -79.8980 153° Southeast 361 415 16,700 1,260 Climbing FlightAware
11:00AM 25.0760 -79.8690 162° South 392 451 17,900 1,920 Climbing FlightAware
11:01AM 24.9710 -79.8320 162° South 408 470 20,100 2,520 Climbing FlightAware
11:01AM 24.9170 -79.8130 162° South 423 487 21,100 1,860 Climbing FlightAware
11:02AM 24.8580 -79.7930 163° South 423 487 22,000 1,920 Climbing FlightAware
11:02AM 24.8200 -79.7790 162° South 435 501 22,700 1,440 Climbing FlightAware
11:03AM 24.7660 -79.7600 162° South 442 509 23,500 480 Climbing FlightAware
11:04AM 24.7200 -79.7440 162° South 442 509 23,500  Level FlightAware
11:04AM 24.6600 -79.7220 162° South 442 509 23,500  Level FlightAware
11:05AM 24.6190 -79.7080 163° South 442 509 23,500 2,340 Level FlightAware
11:05AM 24.4290 -79.6420 162° South 27,300 3,060 Climbing FlightAware
11:06AM 24.3411 -79.6094 162° South 464 534 28,000 1,020 Climbing Miami Center
11:07AM 24.2125 -79.5656 163° South 474 545 29,100 1,200 Climbing Miami Center
11:08AM 24.0836 -79.5219 163° South 479 551 30,500 60 Climbing Miami Center
11:11AM 23.8123 -79.4176 162° South  Level FlightAware Approximate
11:18AM 23.0010 -79.1386 162° South  Level FlightAware Approximate
11:19AM 22.8850 -79.0991 163° South  Level FlightAware Approximate
11:20AM 22.7691 -79.0597 163° South  Level FlightAware Approximate
11:21AM 22.6531 -79.0203 163° South  Level FlightAware Approximate
11:22AM 22.5371 -78.9810 163° South  Level FlightAware Approximate
11:23AM 22.4211 -78.9418 163° South  Level FlightAware Approximate
11:24AM 22.3051 -78.9026 163° South  Level FlightAware Approximate
11:25AM 22.1891 -78.8636 163° South  Level FlightAware Approximate
11:26AM 22.0730 -78.8245 163° South  Level FlightAware Approximate
11:27AM 21.9565 -78.7875 165° South  Level FlightAware Approximate
11:28AM 21.8390 -78.7539 165° South  Level FlightAware Approximate
11:29AM 21.7215 -78.7204 165° South  Level FlightAware Approximate
11:30AM 21.6040 -78.6869 165° South  Level FlightAware Approximate
11:31AM 21.4865 -78.6535 165° South  Level FlightAware Approximate
11:32AM 21.3690 -78.6201 165° South  Level FlightAware Approximate
11:33AM 21.2515 -78.5868 165° South  Level FlightAware Approximate
11:34AM 21.1340 -78.5535 165° South  Level FlightAware Approximate
11:35AM 21.0165 -78.5203 165° South  Level FlightAware Approximate
11:36AM 20.8990 -78.4872 165° South  Level FlightAware Approximate
11:37AM 20.7815 -78.4540 165° South  Level FlightAware Approximate
11:38AM 20.6639 -78.4210 165° South  Level FlightAware Approximate
11:39AM 20.5464 -78.3880 165° South  Level FlightAware Approximate
11:40AM 20.4288 -78.3550 165° South  Level FlightAware Approximate
11:41AM 20.3113 -78.3221 165° South  Level FlightAware Approximate
11:42AM 20.1937 -78.2893 165° South  Level FlightAware Approximate
11:43AM 20.0762 -78.2564 165° South  Level FlightAware Approximate
11:44AM 19.9586 -78.2237 165° South  Level FlightAware Approximate
11:45AM 19.8411 -78.1907 165° South  Level FlightAware Approximate
11:46AM 19.7236 -78.1577 165° South  Level FlightAware Approximate
11:47AM 19.6061 -78.1247 165° South  Level FlightAware Approximate
11:48AM 19.4886 -78.0917 165° South  Level FlightAware Approximate
11:49AM 19.3711 -78.0588 165° South  Level FlightAware Approximate
11:50AM 19.2536 -78.0260 165° South  Level FlightAware Approximate
11:51AM 19.1360 -77.9932 165° South  Level FlightAware Approximate
11:52AM 19.0185 -77.9604 165° South  Level FlightAware Approximate
11:53AM 18.9010 -77.9277 165° South  Level FlightAware Approximate
11:54AM 18.7834 -77.8950 165° South  Level FlightAware Approximate
11:55AM 18.6659 -77.8624 165° South  Level FlightAware Approximate
11:56AM 18.5484 -77.8298 165° South  Level FlightAware Approximate
11:57AM 18.4308 -77.7973 165° South  Level FlightAware Approximate
11:58AM 18.3132 -77.7648 165° South  Level FlightAware Approximate
11:59AM 18.1957 -77.7324 165° South  Level FlightAware Approximate
12:00PM 18.0781 -77.7000 165° South  Level FlightAware Approximate
12:01PM 17.9605 -77.6676 165° South  Level FlightAware Approximate
12:02PM 17.8430 -77.6353 165° South  Level FlightAware Approximate
12:03PM 17.7254 -77.6031 165° South  Level FlightAware Approximate
12:04PM 17.6078 -77.5708 165° South  Level FlightAware Approximate
12:05PM 17.4902 -77.5387 165° South  Level FlightAware Approximate
12:06PM 17.3726 -77.5065 165° South  Level FlightAware Approximate
12:07PM 17.2550 -77.4744 165° South  Level FlightAware Approximate
12:08PM 17.1374 -77.4424 165° South  Level FlightAware Approximate
12:09PM 17.0197 -77.4103 165° South  Level FlightAware Approximate
12:10PM 16.9021 -77.3783 165° South  Level FlightAware Approximate
12:11PM 16.7845 -77.3464 165° South  Level FlightAware Approximate
12:12PM 16.6669 -77.3145 165° South  Level FlightAware Approximate
12:13PM 16.5492 -77.2827 165° South  Level FlightAware Approximate
12:14PM 16.4316 -77.2508 165° South  Level FlightAware Approximate
12:15PM 16.3139 -77.2190 165° South  Level FlightAware Approximate
12:16PM 16.1963 -77.1873 165° South  Level FlightAware Approximate
12:17PM 16.0786 -77.1556 165° South  Level FlightAware Approximate
12:18PM 15.9610 -77.1239 165° South  Level FlightAware Approximate
12:19PM 15.8433 -77.0923 165° South  Level FlightAware Approximate
12:20PM 15.7256 -77.0607 166° South  Level FlightAware Approximate
12:21PM 15.6080 -77.0291 166° South  Level FlightAware Approximate
12:22PM 15.4918 -76.9980 166° South  Level FlightAware Approximate
12:23PM 15.3757 -76.9670 166° South  Level FlightAware Approximate
12:24PM 15.2596 -76.9359 166° South  Level FlightAware Approximate
12:25PM 15.1435 -76.9049 166° South  Level FlightAware Approximate
12:26PM 15.0274 -76.8740 166° South  Level FlightAware Approximate
12:27PM 14.9101 -76.8483 169° South  Level FlightAware Approximate
12:28PM 14.7924 -76.8243 169° South  Level FlightAware Approximate
12:29PM 14.6748 -76.8003 169° South  Level FlightAware Approximate
12:30PM 14.5571 -76.7764 169° South  Level FlightAware Approximate
12:31PM 14.4395 -76.7525 169° South  Level FlightAware Approximate
12:32PM 14.3218 -76.7286 169° South  Level FlightAware Approximate
12:33PM 14.2042 -76.7047 169° South  Level FlightAware Approximate
12:34PM 14.0865 -76.6809 169° South  Level FlightAware Approximate
12:35PM 13.9688 -76.6571 169° South  Level FlightAware Approximate
12:36PM 13.8512 -76.6333 169° South  Level FlightAware Approximate
12:37PM 13.7335 -76.6095 169° South  Level FlightAware Approximate
12:38PM 13.6158 -76.5857 169° South  Level FlightAware Approximate
12:39PM 13.4981 -76.5620 169° South  Level FlightAware Approximate
12:40PM 13.3805 -76.5383 169° South  Level FlightAware Approximate
12:41PM 13.2628 -76.5146 169° South  Level FlightAware Approximate
12:42PM 13.1451 -76.4910 169° South  Level FlightAware Approximate
12:43PM 13.0274 -76.4674 169° South  Level FlightAware Approximate
12:43PM 11.8760 -76.2490 169° South 474 545 37,000  Level FlightAware
12:44PM 12.9097 -76.4438 169° South  Level FlightAware Approximate
12:44PM 11.8010 -76.2340 169° South 473 544 37,000  Level FlightAware
12:45PM 11.7370 -76.2210 169° South 473 544 37,000  Level FlightAware
12:45PM 11.6710 -76.2080 169° South 473 544 37,000  Level FlightAware
12:46PM 11.6040 -76.1950 169° South 473 544 37,000  Level FlightAware
12:46PM 11.5380 -76.1820 169° South 473 544 37,000  Level FlightAware
12:47PM 11.4180 -76.1580 169° South 472 543 37,000  Level FlightAware
12:48PM 11.3390 -76.1420 169° South 472 543 37,000  Level FlightAware
12:48PM 11.2670 -76.1280 169° South 472 543 37,000  Level FlightAware
12:49PM 11.1810 -76.1110 169° South 473 544 37,000  Level FlightAware
12:49PM 11.1160 -76.0980 169° South 472 543 37,000  Level FlightAware
12:50PM 11.0410 -76.0830 169° South 473 544 37,000  Level FlightAware
12:51PM 10.9560 -76.0660 169° South 472 543 37,000  Level FlightAware
12:51PM 10.8900 -76.0530 169° South 472 543 37,000  Level FlightAware
12:52PM 10.8150 -76.0380 169° South 472 543 37,000  Level FlightAware
12:52PM 10.7550 -76.0260 169° South 471 542 37,000  Level FlightAware
12:53PM 10.6580 -76.0070 169° South 471 542 37,000  Level FlightAware
12:53PM 10.5870 -75.9930 169° South 473 544 37,000  Level FlightAware
12:54PM 10.5150 -75.9790 169° South 473 544 37,000  Level FlightAware
12:55PM 10.4370 -75.9630 169° South 473 544 37,000  Level FlightAware
12:55PM 10.3610 -75.9480 169° South 472 543 37,000  Level FlightAware
12:56PM 10.2860 -75.9340 170° South 471 542 37,000  Level FlightAware
12:56PM 10.2110 -75.9190 169° South 468 539 37,000  Level FlightAware
12:57PM 10.1370 -75.9040 169° South 467 537 37,000  Level FlightAware
12:57PM 10.0630 -75.8900 169° South 465 535 37,000  Level FlightAware
12:58PM 9.9770 -75.8730 169° South 462 532 37,000  Level FlightAware
12:59PM 9.9290 -75.8630 168° South 461 531 37,000  Level FlightAware
12:59PM 9.8470 -75.8470 169° South 461 531 37,000  Level FlightAware
01:00PM 9.7610 -75.8300 169° South 460 529 37,000  Level FlightAware
01:01PM 9.6440 -75.8070 169° South 457 526 37,000  Level FlightAware
01:01PM 9.5690 -75.7930 170° South 454 522 37,000  Level FlightAware
01:02PM 9.4800 -75.7750 169° South 452 520 37,000  Level FlightAware
01:02PM 9.4480 -75.7690 170° South 451 519 37,000  Level FlightAware
01:03PM 9.3250 -75.7450 169° South 450 518 37,000  Level FlightAware
01:04PM 9.2420 -75.7280 169° South 448 516 37,000  Level FlightAware
01:05PM 9.1500 -75.7100 169° South 448 516 37,000  Level FlightAware
01:06PM 9.0550 -75.6920 169° South 449 517 37,000  Level FlightAware
01:06PM 8.9650 -75.6740 169° South 454 522 37,000  Level FlightAware
01:07PM 8.9010 -75.6610 169° South 455 524 37,000  Level FlightAware
01:08PM 8.7970 -75.6410 169° South 457 526 37,000  Level FlightAware
01:08PM 8.7010 -75.6220 169° South 456 525 37,000  Level FlightAware
01:09PM 8.6140 -75.6050 169° South 457 526 37,000  Level FlightAware
01:10PM 8.5390 -75.5910 170° South 456 525 37,000  Level FlightAware
01:10PM 8.4680 -75.5770 169° South 457 526 37,000  Level FlightAware
01:11PM 8.3780 -75.5590 169° South 456 525 37,000  Level FlightAware
01:12PM 8.3180 -75.5480 170° South 456 525 37,000  Level FlightAware
01:12PM 8.2320 -75.5310 169° South 456 525 37,000  Level FlightAware
01:13PM 8.1640 -75.5180 169° South 457 526 37,000  Level FlightAware
01:13PM 8.0760 -75.5010 169° South 460 529 37,000  Level FlightAware
01:14PM 8.0030 -75.4860 168° South 460 529 37,000  Level FlightAware
01:15PM 7.9180 -75.4700 169° South 460 529 37,000  Level FlightAware
01:15PM 7.8550 -75.4580 169° South 461 531 37,000  Level FlightAware
01:16PM 7.7820 -75.4510 175° South 462 532 37,000  Level FlightAware
01:17PM 7.6870 -75.4440 176° South 463 533 37,000  Level FlightAware
01:17PM 7.6120 -75.4380 175° South 463 533 37,000  Level FlightAware
01:18PM 7.5350 -75.4320 176° South 456 525 37,000  Level FlightAware
01:18PM 7.4640 -75.4260 175° South 445 512 37,000  Level FlightAware
01:19PM 7.3830 -75.4200 176° South 445 512 37,000  Level FlightAware
01:19PM 7.3180 -75.4140 175° South 444 511 37,000 -660 Level FlightAware
01:20PM 7.2350 -75.4080 176° South 447 514 36,100 -1,380 Descending FlightAware
01:21PM 7.1110 -75.3980 175° South 447 514 34,800 -1,740 Descending FlightAware
01:22PM 7.0430 -75.3930 176° South 447 514 33,700 -1,680 Descending FlightAware
01:22PM 6.9790 -75.3870 175° South 439 505 33,000 -720 Descending FlightAware
01:23PM 6.9220 -75.3830 176° South 427 491 33,000 -180 Level FlightAware
01:23PM 6.9000 -75.3810 175° South 421 484 32,900 -3,240 Descending FlightAware
01:24PM 6.7630 -75.3700 175° South 448 516 28,800 -3,300 Descending FlightAware
01:25PM 6.6920 -75.3650 176° South 440 506 27,300 -2,640 Descending FlightAware
01:25PM 6.6330 -75.3610 176° South 427 491 26,000 -900 Descending FlightAware
01:26PM 6.5310 -75.3530 176° South 427 491 26,000  Level FlightAware
01:27PM 6.4490 -75.3480 177° South 427 491 26,000 -2,340 Level FlightAware
01:28PM 6.3660 -75.3380 173° South 365 420 22,400 -2,700 Descending FlightAware
01:28PM 6.3140 -75.3340 176° South 365 420 22,400  Level FlightAware
01:29PM 6.2620 -75.3290 175° South 365 420 22,400  Level FlightAware
01:29PM 6.2090 -75.3250 176° South 365 420 22,400  Level FlightAware
01:30PM 6.1560 -75.3200 175° South 365 420 22,400  Level FlightAware
01:31PM 6.1030 -75.3150 175° South 365 420 22,400  Level FlightAware
01:33PM 6.1500 -75.4167 259° West  Level FlightAware Approximate
01:34PM 6.1645 -75.4231 259° West  Level Estimated
01:35PM 6.1645 -75.4231 259° West  Level Estimated
01:36PM 6.1645 -75.4231 259° West  Level Estimated
01:37PM 6.1645 -75.4231 259° West  Level Estimated
01:38PM 6.1645 -75.4231 259° West  Level Estimated
01:39PM 6.1645 -75.4231 259° West  Level Estimated
01:40PM 6.1645 -75.4231 259° West  Level Estimated
01:41PM 6.1645 -75.4231 259° West  Level Estimated
01:42PM 6.1645 -75.4231 259° West  Level Estimated
01:43PM 6.1645 -75.4231 259° West  Level Estimated